Time;durP1;ratioP1;P1;durP2;ratioP2;P2;SDS_P1;SDS_P2;PMS_P1;PMS_P2;Temp;Humidity;BMP_temperature;BMP_pressure;BME280_temperature;BME280_humidity;BME280_pressure;Samples;Min_cycle;Max_cycle;Signal;HPM_P1;HPM_P2
2022/01/24 00:00:14;;;;;;;72.68;29.98;;;;;;;5.50;100.00;103520.38;5021899;28;20204;-69
2022/01/24 00:02:41;;;;;;;72.53;29.00;;;;;;;5.36;100.00;103514.94;5018811;28;20076;-69
2022/01/24 00:05:08;;;;;;;70.22;29.73;;;;;;;5.60;100.00;103507.31;5019193;28;20052;-68
2022/01/24 00:07:33;;;;;;;71.68;30.23;;;;;;;5.41;100.00;103511.63;5019213;28;20136;-68
2022/01/24 00:10:02;;;;;;;84.32;32.58;;;;;;;5.34;100.00;103511.59;5018842;28;20045;-69
2022/01/24 00:12:37;;;;;;;76.78;33.00;;;;;;;5.33;100.00;103514.53;5018922;28;20038;-69
2022/01/24 00:15:14;;;;;;;78.95;32.25;;;;;;;5.36;100.00;103509.53;5018491;28;20555;-69
2022/01/24 00:17:46;;;;;;;74.28;31.95;;;;;;;5.36;100.00;103514.13;5019232;28;20037;-68
2022/01/24 00:28:25;;;;;;;75.68;33.78;;;;;;;5.52;100.00;103504.78;5039006;28;20126;-69
2022/01/24 00:30:52;;;;;;;82.53;34.63;;;;;;;5.51;100.00;103500.44;5038395;28;20044;-69
2022/01/24 00:33:19;;;;;;;72.55;31.55;;;;;;;5.14;100.00;103502.59;5038518;28;20073;-68
2022/01/24 00:35:45;;;;;;;76.32;35.20;;;;;;;5.15;100.00;103506.97;5038440;28;20041;-68
2022/01/24 00:38:11;;;;;;;80.15;33.90;;;;;;;5.34;100.00;103500.78;5038996;28;20036;-68
2022/01/24 00:40:39;;;;;;;79.05;35.63;;;;;;;5.23;100.00;103498.66;5038476;28;20083;-68
2022/01/24 00:43:16;;;;;;;87.00;33.95;;;;;;;5.19;100.00;103502.81;5039241;28;20099;-69
2022/01/24 00:56:11;;;;;;;78.03;34.00;;;;;;;5.48;100.00;103500.84;5038408;28;20468;-68
2022/01/24 00:58:37;;;;;;;71.78;34.72;;;;;;;5.28;100.00;103501.59;5037861;28;20049;-69
2022/01/24 01:01:04;;;;;;;77.10;36.63;;;;;;;5.15;100.00;103501.56;5037991;28;20045;-69
2022/01/24 01:03:30;;;;;;;78.97;33.63;;;;;;;5.17;100.00;103494.06;5037952;28;20029;-69
2022/01/24 01:19:21;;;;;;;71.70;33.60;;;;;;;5.25;100.00;103483.06;5031805;28;20091;-69
2022/01/24 01:21:46;;;;;;;71.57;33.60;;;;;;;5.22;100.00;103487.00;5017888;28;20037;-69
2022/01/24 01:24:12;;;;;;;73.80;33.63;;;;;;;5.09;100.00;103491.53;5018222;28;20038;-68
2022/01/24 01:26:44;;;;;;;72.22;34.47;;;;;;;5.25;100.00;103490.34;5017760;28;20132;-69
2022/01/24 01:29:24;;;;;;;75.90;35.28;;;;;;;5.35;100.00;103485.38;5017426;28;20477;-69
2022/01/24 01:37:18;;;;;;;71.13;34.03;;;;;;;5.46;100.00;103487.50;5016994;28;20045;-68
2022/01/24 01:53:47;;;;;;;73.47;35.80;;;;;;;5.17;100.00;103483.25;5017072;28;20401;-69
2022/01/24 01:56:09;;;;;;;71.18;34.97;;;;;;;5.22;100.00;103475.34;5028730;28;20045;-69
2022/01/24 01:58:35;;;;;;;74.47;35.40;;;;;;;5.16;100.00;103474.31;5033668;28;20049;-69
2022/01/24 02:01:02;;;;;;;76.07;35.42;;;;;;;5.25;100.00;103479.53;5017630;28;20037;-69
2022/01/24 02:03:29;;;;;;;72.45;35.67;;;;;;;5.23;100.00;103471.59;5017496;28;20098;-68
2022/01/24 02:05:55;;;;;;;75.10;36.10;;;;;;;5.25;100.00;103474.94;5016589;28;20049;-69
2022/01/24 02:08:29;;;;;;;75.75;36.42;;;;;;;5.08;100.00;103479.88;5016291;28;20505;-69
2022/01/24 02:10:56;;;;;;;73.93;34.05;;;;;;;5.11;100.00;103473.22;5016495;28;20057;-69
2022/01/24 02:13:23;;;;;;;72.07;35.30;;;;;;;5.19;100.00;103473.06;5016384;28;20544;-68
2022/01/24 02:16:08;;;;;;;75.50;36.22;;;;;;;5.13;100.00;103471.16;5016508;28;20041;-69
2022/01/24 02:18:49;;;;;;;72.13;32.42;;;;;;;5.01;100.00;103461.97;5016677;28;20413;-69
2022/01/24 02:21:43;;;;;;;71.80;34.65;;;;;;;5.12;100.00;103467.63;5016641;28;20049;-69
2022/01/24 02:24:11;;;;;;;68.22;32.50;;;;;;;5.31;100.00;103474.13;5016987;28;20037;-68
2022/01/24 02:26:36;;;;;;;66.85;33.80;;;;;;;5.34;100.00;103462.91;5017109;28;20037;-69
2022/01/24 02:29:10;;;;;;;67.32;33.75;;;;;;;5.31;100.00;103457.91;5016504;28;20041;-69
2022/01/24 02:31:45;;;;;;;73.68;34.45;;;;;;;5.20;100.00;103461.19;5016546;28;20046;-68
2022/01/24 02:34:30;;;;;;;68.38;33.60;;;;;;;5.11;100.00;103463.25;5016310;28;20047;-68
2022/01/24 02:37:02;;;;;;;67.35;31.20;;;;;;;5.12;100.00;103466.78;5016078;28;20045;-68
2022/01/24 02:53:01;;;;;;;56.35;28.65;;;;;;;5.24;100.00;103448.94;5017661;28;20054;-68
2022/01/24 02:55:27;;;;;;;56.15;27.20;;;;;;;5.03;100.00;103449.91;5024218;28;20545;-69
2022/01/24 02:57:52;;;;;;;51.15;25.80;;;;;;;5.03;100.00;103454.47;5037540;28;20162;-68
2022/01/24 03:00:17;;;;;;;51.38;25.25;;;;;;;5.08;100.00;103452.00;5020972;28;20044;-68
2022/01/24 03:02:43;;;;;;;59.33;26.77;;;;;;;5.03;100.00;103444.47;5021308;28;20053;-68
2022/01/24 03:05:08;;;;;;;53.60;26.63;;;;;;;5.04;100.00;103445.34;5021270;28;20056;-69
2022/01/24 03:07:34;;;;;;;56.15;27.17;;;;;;;4.72;100.00;103447.69;5021336;28;20053;-69
2022/01/24 03:10:08;;;;;;;52.38;26.92;;;;;;;4.71;100.00;103451.41;5021225;28;20077;-68
2022/01/24 03:12:42;;;;;;;55.20;27.67;;;;;;;4.53;100.00;103439.25;5021119;28;20041;-69
2022/01/24 03:15:09;;;;;;;58.40;29.40;;;;;;;4.47;100.00;103445.47;5020570;28;20060;-68
2022/01/24 03:17:35;;;;;;;61.40;29.23;;;;;;;4.37;100.00;103444.19;5020688;28;20045;-69
2022/01/24 03:20:00;;;;;;;63.75;29.70;;;;;;;4.15;100.00;103449.63;5031716;28;20067;-68
2022/01/24 03:22:26;;;;;;;58.00;28.27;;;;;;;4.25;100.00;103446.59;5041117;28;20053;-69
2022/01/24 03:24:51;;;;;;;61.05;29.63;;;;;;;4.16;100.00;103440.50;5041204;28;20041;-68
2022/01/24 03:27:17;;;;;;;55.17;28.58;;;;;;;4.12;100.00;103433.81;5041875;28;20501;-69
2022/01/24 03:29:42;;;;;;;58.88;28.92;;;;;;;3.97;100.00;103439.31;5049466;28;20054;-68
2022/01/24 03:32:08;;;;;;;69.35;29.27;;;;;;;4.04;100.00;103440.22;5041432;28;20036;-69
2022/01/24 03:34:33;;;;;;;65.40;30.42;;;;;;;4.01;100.00;103435.16;5040346;28;20340;-69
2022/01/24 03:36:58;;;;;;;56.38;27.88;;;;;;;4.06;100.00;103435.44;5039062;28;20061;-70
2022/01/24 03:39:24;;;;;;;63.05;29.83;;;;;;;4.09;100.00;103437.72;5041483;28;20550;-67
2022/01/24 03:41:49;;;;;;;66.63;31.23;;;;;;;4.07;100.00;103434.41;5041616;28;20588;-70
2022/01/24 03:44:17;;;;;;;67.25;31.98;;;;;;;4.11;100.00;103439.41;5042198;28;20048;-68
2022/01/24 03:46:48;;;;;;;59.85;29.15;;;;;;;4.16;100.00;103436.94;5043508;28;20033;-70
2022/01/24 03:49:45;;;;;;;62.03;28.73;;;;;;;4.13;100.00;103429.25;5044128;28;20049;-69
2022/01/24 03:52:05;;;;;;;61.53;30.52;;;;;;;3.93;100.00;103434.50;5044419;28;20526;-70
2022/01/24 03:54:31;;;;;;;60.80;28.30;;;;;;;3.83;100.00;103432.13;5045145;28;20033;-70
2022/01/24 03:56:56;;;;;;;59.97;29.50;;;;;;;3.74;100.00;103439.53;5045584;28;20036;-70
2022/01/24 03:59:21;;;;;;;58.70;28.83;;;;;;;3.75;100.00;103438.50;5041454;28;20053;-70
2022/01/24 04:01:47;;;;;;;58.70;26.70;;;;;;;3.71;100.00;103428.28;5021502;28;20041;-69
2022/01/24 04:04:12;;;;;;;61.88;28.70;;;;;;;3.55;100.00;103435.63;5021505;28;20432;-69
2022/01/24 04:06:38;;;;;;;56.80;27.65;;;;;;;3.66;100.00;103438.81;5022269;28;20048;-69
2022/01/24 04:09:03;;;;;;;56.53;27.20;;;;;;;3.71;100.00;103439.09;5022157;28;20040;-69
2022/01/24 04:11:35;;;;;;;58.95;26.75;;;;;;;3.42;100.00;103429.25;5022270;28;20504;-70
2022/01/24 04:14:11;;;;;;;59.30;29.00;;;;;;;3.74;100.00;103428.72;5029961;28;20056;-70
2022/01/24 04:16:41;;;;;;;62.90;29.33;;;;;;;3.72;100.00;103430.78;5018697;28;20045;-70
2022/01/24 04:21:16;;;;;;;57.75;27.40;;;;;;;3.87;100.00;103430.72;5037209;28;20477;-70
2022/01/24 04:21:55;;;;;;;54.10;26.55;;;;;;;3.87;100.00;103428.03;5038188;28;20570;-69
2022/01/24 04:24:23;;;;;;;53.05;26.85;;;;;;;3.78;100.00;103431.88;5037626;28;20508;-70
2022/01/24 04:26:49;;;;;;;66.18;28.15;;;;;;;3.85;100.00;103435.47;5037559;28;20420;-70
2022/01/24 04:29:14;;;;;;;65.20;30.33;;;;;;;3.85;100.00;103446.28;5037868;28;20056;-69
2022/01/24 04:31:39;;;;;;;60.42;28.25;;;;;;;3.99;100.00;103442.66;5038014;28;20048;-69
2022/01/24 04:34:05;;;;;;;65.90;28.77;;;;;;;4.08;100.00;103446.88;5038135;28;20048;-70
2022/01/24 04:36:30;;;;;;;53.92;26.88;;;;;;;4.13;100.00;103442.75;5037669;28;20041;-69
2022/01/24 04:38:56;;;;;;;51.05;26.27;;;;;;;4.13;100.00;103448.13;5038576;28;20570;-69
2022/01/24 04:41:26;;;;;;;51.20;24.67;;;;;;;4.12;100.00;103452.72;5037908;28;20041;-70
2022/01/24 04:43:58;;;;;;;44.65;22.67;;;;;;;4.18;100.00;103456.50;5037389;28;20053;-69
2022/01/24 04:56:39;;;;;;;40.85;21.30;;;;;;;4.12;100.00;103443.78;5036827;28;20056;-69
2022/01/24 04:59:05;;;;;;;42.72;21.33;;;;;;;4.14;100.00;103441.72;5029101;28;20068;-69
2022/01/24 05:01:31;;;;;;;38.97;21.15;;;;;;;4.15;100.00;103446.09;5034656;28;20049;-69
2022/01/24 05:03:56;;;;;;;41.00;21.15;;;;;;;4.16;100.00;103445.91;5036445;28;20033;-69
2022/01/24 05:06:21;;;;;;;39.88;20.60;;;;;;;4.12;100.00;103447.31;5037139;28;20040;-69
2022/01/24 05:08:47;;;;;;;38.40;20.55;;;;;;;3.99;100.00;103447.22;5036774;28;20533;-69
2022/01/24 05:11:18;;;;;;;39.90;20.75;;;;;;;3.97;100.00;103442.00;5036956;28;20045;-69
2022/01/24 05:24:29;;;;;;;37.95;19.80;;;;;;;3.85;100.00;103446.28;5035605;28;20041;-68
2022/01/24 05:26:55;;;;;;;37.17;19.45;;;;;;;3.89;100.00;103436.75;5036487;28;20173;-69
2022/01/24 05:29:20;;;;;;;34.50;17.92;;;;;;;3.77;100.00;103439.13;5036350;28;20040;-69
2022/01/24 05:31:45;;;;;;;33.92;17.58;;;;;;;3.78;100.00;103437.25;5035994;28;20036;-69
2022/01/24 05:34:11;;;;;;;34.10;18.15;;;;;;;3.73;100.00;103437.03;5036052;28;20033;-68
2022/01/24 05:36:36;;;;;;;32.30;17.42;;;;;;;3.94;100.00;103438.88;5035841;28;20044;-69
2022/01/24 05:39:02;;;;;;;34.17;18.35;;;;;;;3.79;100.00;103437.09;5036530;28;20493;-69
2022/01/24 05:41:27;;;;;;;34.15;18.00;;;;;;;3.79;100.00;103436.25;5036746;28;20408;-70
2022/01/24 05:43:53;;;;;;;31.63;17.48;;;;;;;3.87;100.00;103438.81;5036154;28;20068;-69
2022/01/24 05:46:18;;;;;;;30.33;16.77;;;;;;;3.97;100.00;103439.31;5036557;28;20517;-69
2022/01/24 05:48:44;;;;;;;30.52;17.63;;;;;;;3.85;100.00;103440.88;5036446;28;20052;-69
2022/01/24 05:51:09;;;;;;;36.55;18.45;;;;;;;3.91;100.00;103440.09;5036133;28;20055;-68
2022/01/24 05:53:34;;;;;;;32.92;17.17;;;;;;;3.99;100.00;103442.66;5036825;28;20129;-69
2022/01/24 05:56:00;;;;;;;31.33;18.00;;;;;;;4.09;100.00;103436.91;5036152;28;20470;-69
2022/01/24 05:58:26;;;;;;;38.42;18.77;;;;;;;4.01;100.00;103443.28;5033815;28;20535;-69
2022/01/24 06:00:51;;;;;;;33.25;17.90;;;;;;;4.05;100.00;103441.88;5016436;28;20052;-69
2022/01/24 06:03:17;;;;;;;38.17;20.02;;;;;;;4.15;100.00;103440.69;5015919;28;20045;-69
2022/01/24 06:05:42;;;;;;;30.30;16.08;;;;;;;4.04;100.00;103453.72;5016172;28;20090;-69
2022/01/24 06:08:08;;;;;;;31.13;17.65;;;;;;;4.04;100.00;103448.31;5015904;28;20045;-72
2022/01/24 06:10:36;;;;;;;36.17;17.48;;;;;;;3.92;100.00;103449.84;5015506;28;20037;-69
2022/01/24 06:13:01;;;;;;;34.55;17.85;;;;;;;4.01;100.00;103445.97;5014732;28;20557;-69
2022/01/24 06:15:27;;;;;;;31.23;17.77;;;;;;;4.03;100.00;103446.63;5016053;28;20052;-69
2022/01/24 06:17:52;;;;;;;32.38;17.67;;;;;;;4.11;100.00;103436.72;5027934;28;20044;-69
2022/01/24 06:20:18;;;;;;;35.50;18.92;;;;;;;4.02;100.00;103442.25;5034656;28;20469;-69
2022/01/24 06:22:44;;;;;;;35.00;19.35;;;;;;;4.03;100.00;103448.50;5034309;28;20421;-69
2022/01/24 06:25:10;;;;;;;31.73;18.23;;;;;;;4.13;100.00;103442.75;5034257;28;20504;-69
2022/01/24 06:27:36;;;;;;;37.47;20.70;;;;;;;3.95;100.00;103441.34;5034402;28;20041;-69
2022/01/24 06:30:02;;;;;;;32.83;18.27;;;;;;;3.86;100.00;103447.94;5034756;28;20055;-69
2022/01/24 06:32:27;;;;;;;35.47;19.15;;;;;;;3.95;100.00;103446.75;5034876;28;20406;-69
2022/01/24 06:34:52;;;;;;;32.15;18.15;;;;;;;4.00;100.00;103448.88;5035283;28;20507;-69
2022/01/24 06:37:18;;;;;;;32.72;18.70;;;;;;;4.08;100.00;103454.97;5038889;28;20037;-69
2022/01/24 06:39:43;;;;;;;35.25;19.88;;;;;;;4.07;100.00;103449.75;5038666;28;20499;-69
2022/01/24 06:42:14;;;;;;;36.70;19.20;;;;;;;4.09;100.00;103451.22;5037586;28;21004;-69
2022/01/24 06:44:41;;;;;;;32.97;18.27;;;;;;;4.17;100.00;103455.66;5038689;28;20120;-69
2022/01/24 06:47:07;;;;;;;36.63;19.50;;;;;;;4.18;100.00;103454.63;5039738;28;20037;-69
2022/01/24 06:49:34;;;;;;;32.08;19.02;;;;;;;4.23;100.00;103454.88;5039372;28;20041;-69
2022/01/24 06:52:00;;;;;;;34.22;18.58;;;;;;;4.04;100.00;103451.00;5038628;28;20048;-69
2022/01/24 06:54:25;;;;;;;34.05;19.88;;;;;;;3.99;100.00;103456.16;5038860;28;20040;-69
2022/01/24 06:56:51;;;;;;;34.83;18.80;;;;;;;3.98;100.00;103457.16;5038970;28;20481;-69
2022/01/24 06:59:16;;;;;;;31.92;18.17;;;;;;;3.99;100.00;103456.16;5029886;28;20088;-69
2022/01/24 07:01:41;;;;;;;34.78;19.63;;;;;;;3.96;100.00;103463.81;5019225;28;20592;-69
2022/01/24 07:04:07;;;;;;;33.58;19.52;;;;;;;3.96;100.00;103464.66;5019611;28;20445;-69
2022/01/24 07:06:32;;;;;;;31.38;19.30;;;;;;;4.07;100.00;103466.81;5019805;28;20044;-69
2022/01/24 07:08:58;;;;;;;33.67;19.35;;;;;;;4.04;100.00;103472.59;5020180;28;20053;-69
2022/01/24 07:11:23;;;;;;;34.00;19.05;;;;;;;4.10;100.00;103454.75;5020157;28;20064;-69
2022/01/24 07:13:50;;;;;;;34.53;19.35;;;;;;;4.12;100.00;103460.81;5019948;28;20056;-69
2022/01/24 07:16:16;;;;;;;32.35;20.08;;;;;;;4.14;100.00;103466.03;5019157;28;20045;-68
2022/01/24 07:19:02;;;;;;;35.55;19.50;;;;;;;4.22;100.00;103468.59;5018897;28;20045;-69
2022/01/24 07:21:28;;;;;;;34.05;20.10;;;;;;;4.03;100.00;103476.31;5018944;28;20183;-69
2022/01/24 07:23:53;;;;;;;33.58;19.55;;;;;;;4.14;100.00;103476.84;5019363;28;20045;-69
2022/01/24 07:26:19;;;;;;;33.50;21.27;;;;;;;4.04;100.00;103472.59;5019108;28;20041;-69
2022/01/24 07:28:44;;;;;;;30.20;18.92;;;;;;;3.92;100.00;103478.72;5019290;28;20405;-69
2022/01/24 07:31:10;;;;;;;29.55;19.45;;;;;;;3.96;100.00;103486.25;5018948;28;20046;-69
2022/01/24 07:33:36;;;;;;;37.40;20.45;;;;;;;4.06;100.00;103489.44;5019011;28;20041;-69
2022/01/24 07:36:01;;;;;;;31.50;20.45;;;;;;;4.00;100.00;103487.50;5019086;28;20122;-69
2022/01/24 07:38:27;;;;;;;36.42;21.42;;;;;;;4.09;100.00;103480.94;5018843;28;20044;-69
2022/01/24 07:40:54;;;;;;;34.38;19.90;;;;;;;3.89;100.00;103488.03;5018720;28;20054;-69
2022/01/24 07:43:20;;;;;;;36.35;20.92;;;;;;;3.89;100.00;103484.50;5018422;28;20041;-68
2022/01/24 07:45:46;;;;;;;36.88;21.05;;;;;;;4.00;100.00;103495.63;5018706;28;20060;-69
2022/01/24 07:48:13;;;;;;;34.85;19.90;;;;;;;4.13;100.00;103485.94;5016654;28;20072;-69
2022/01/24 07:50:41;;;;;;;37.55;20.52;;;;;;;4.12;100.00;103487.00;5018007;28;20634;-69
2022/01/24 07:53:12;;;;;;;32.33;20.52;;;;;;;4.06;100.00;103486.72;5018420;28;20041;-69
2022/01/24 07:55:37;;;;;;;35.63;21.08;;;;;;;4.13;100.00;103491.34;5025641;28;20060;-69
2022/01/24 07:58:03;;;;;;;32.78;20.60;;;;;;;4.11;100.00;103488.03;5037984;28;20057;-69
2022/01/24 08:00:29;;;;;;;32.28;20.88;;;;;;;4.08;100.00;103489.25;5019237;28;20037;-69
2022/01/24 08:02:54;;;;;;;33.13;20.33;;;;;;;4.08;100.00;103479.28;5019278;28;20052;-69
2022/01/24 08:05:19;;;;;;;37.42;21.75;;;;;;;4.05;100.00;103485.06;5018727;28;20052;-69
2022/01/24 08:07:45;;;;;;;34.15;21.25;;;;;;;4.17;100.00;103482.66;5019185;28;20045;-69
2022/01/24 08:10:10;;;;;;;33.88;20.75;;;;;;;4.21;100.00;103475.84;5018326;28;20045;-69
2022/01/24 08:12:38;;;;;;;35.72;21.35;;;;;;;4.18;100.00;103478.09;5018713;28;20038;-69
2022/01/24 08:15:05;;;;;;;40.47;22.67;;;;;;;4.34;100.00;103483.22;5018592;28;20053;-69
2022/01/24 08:17:31;;;;;;;39.67;23.05;;;;;;;4.51;100.00;103490.00;5018242;28;20080;-69
2022/01/24 08:19:56;;;;;;;37.63;21.23;;;;;;;4.48;100.00;103490.38;5028523;28;20448;-69
2022/01/24 08:22:22;;;;;;;41.53;23.90;;;;;;;4.64;100.00;103489.22;5038069;28;20041;-69
2022/01/24 08:24:50;;;;;;;39.75;22.02;;;;;;;4.47;100.00;103488.69;5037605;28;20582;-69
2022/01/24 08:27:18;;;;;;;36.47;22.73;;;;;;;4.60;100.00;103487.13;5037725;28;20045;-69
2022/01/24 08:29:45;;;;;;;36.25;22.42;;;;;;;4.74;100.00;103491.56;5038178;28;20115;-69
2022/01/24 08:32:11;;;;;;;36.20;22.80;;;;;;;4.75;100.00;103498.66;5038369;28;20048;-69
2022/01/24 08:34:37;;;;;;;33.67;20.17;;;;;;;4.57;100.00;103495.63;5037572;28;20120;-69
2022/01/24 08:37:04;;;;;;;32.70;20.55;;;;;;;4.41;100.00;103494.91;5038432;28;20048;-69
2022/01/24 08:39:29;;;;;;;37.70;19.88;;;;;;;4.70;100.00;103498.41;5037610;28;20044;-69
2022/01/24 08:46:48;;;;;;;38.15;20.73;;;;;;;5.04;100.00;103494.03;5038023;28;20124;-69
2022/01/24 08:49:14;;;;;;;35.47;21.25;;;;;;;5.02;100.00;103490.69;5037596;28;20390;-69
2022/01/24 08:51:40;;;;;;;37.20;21.58;;;;;;;4.94;100.00;103484.38;5037276;28;20450;-69
2022/01/24 08:54:07;;;;;;;31.25;18.98;;;;;;;5.05;100.00;103491.09;5038237;28;20033;-69
2022/01/24 08:56:32;;;;;;;28.13;17.50;;;;;;;5.01;100.00;103494.44;5037546;28;20106;-69
2022/01/24 08:58:58;;;;;;;28.48;17.55;;;;;;;4.77;100.00;103493.91;5031736;28;20087;-69
2022/01/24 09:01:23;;;;;;;31.70;18.52;;;;;;;4.93;100.00;103495.41;5018201;28;20068;-69
2022/01/24 09:03:49;;;;;;;30.63;17.77;;;;;;;4.97;100.00;103486.72;5017664;28;20053;-69
2022/01/24 09:06:17;;;;;;;25.52;16.30;;;;;;;4.86;100.00;103479.16;5018435;28;20136;-69
2022/01/24 09:08:43;;;;;;;26.58;17.15;;;;;;;5.08;100.00;103487.16;5025221;28;20122;-69
2022/01/24 09:11:09;;;;;;;27.58;17.00;;;;;;;5.17;100.00;103483.25;5037607;28;20049;-69
2022/01/24 09:13:34;;;;;;;28.10;17.08;;;;;;;5.21;100.00;103482.66;5038195;28;20049;-69
2022/01/24 09:16:01;;;;;;;27.17;17.65;;;;;;;5.22;100.00;103484.31;5038069;28;20227;-69
2022/01/24 09:18:28;;;;;;;28.90;19.23;;;;;;;5.33;100.00;103485.59;5038417;28;20048;-69
2022/01/24 09:20:53;;;;;;;34.67;20.27;;;;;;;5.23;100.00;103487.84;5037043;28;20079;-69
2022/01/24 09:23:19;;;;;;;29.23;19.17;;;;;;;5.41;100.00;103496.25;5037489;28;20044;-69
2022/01/24 09:25:44;;;;;;;31.88;20.50;;;;;;;5.59;100.00;103492.13;5037529;28;20055;-68
2022/01/24 09:28:10;;;;;;;33.38;21.30;;;;;;;5.54;100.00;103490.03;5036621;28;20041;-69
2022/01/24 09:30:35;;;;;;;32.95;20.40;;;;;;;5.50;100.00;103490.63;5036836;28;20049;-69
2022/01/24 09:33:01;;;;;;;36.58;22.05;;;;;;;5.38;100.00;103491.25;5036738;28;20041;-68
2022/01/24 09:35:28;;;;;;;36.38;23.15;;;;;;;5.50;100.00;103487.91;5037009;28;20052;-69
2022/01/24 09:37:54;;;;;;;37.55;22.25;;;;;;;5.66;100.00;103488.38;5053028;23;20031;-70
2022/01/24 09:40:20;;;;;;;38.47;22.80;;;;;;;5.59;100.00;103492.13;5015109;28;20073;-70
2022/01/24 09:42:47;;;;;;;39.10;23.92;;;;;;;5.47;100.00;103493.72;4995467;28;20071;-70
2022/01/24 09:45:14;;;;;;;36.88;23.23;;;;;;;5.50;100.00;103487.91;5012823;28;20037;-70
2022/01/24 09:47:40;;;;;;;38.47;24.80;;;;;;;5.44;100.00;103493.13;5013687;28;20041;-71
2022/01/24 09:50:08;;;;;;;44.72;25.55;;;;;;;5.47;100.00;103499.16;5013078;28;20111;-70
2022/01/24 09:52:33;;;;;;;46.63;27.20;;;;;;;5.51;100.00;103495.84;5013975;28;20521;-72
2022/01/24 09:54:59;;;;;;;48.53;26.35;;;;;;;5.60;100.00;103489.19;5013138;28;20467;-72
2022/01/24 09:57:24;;;;;;;49.05;26.48;;;;;;;5.66;100.00;103488.38;5012175;28;20118;-72
2022/01/24 09:59:52;;;;;;;47.40;26.15;;;;;;;5.70;100.00;103488.78;5011752;28;20484;-70
2022/01/24 10:02:17;;;;;;;45.35;27.30;;;;;;;5.72;100.00;103485.88;5013016;28;20037;-70
2022/01/24 10:04:43;;;;;;;44.55;24.88;;;;;;;5.67;100.00;103481.09;5013589;28;20415;-70
2022/01/24 10:07:12;;;;;;;52.47;26.27;;;;;;;5.81;100.00;103482.75;5013849;28;20042;-71
2022/01/24 10:09:46;;;;;;;47.95;27.08;;;;;;;5.62;100.00;103489.00;5008199;28;20392;-70
2022/01/24 10:16:24;;;;;;;56.08;29.38;;;;;;;5.84;100.00;103490.47;5004084;28;20045;-70
2022/01/24 10:18:08;;;;;;;56.70;30.85;;;;;;;5.76;100.00;103493.41;5012541;28;20056;-70
2022/01/24 10:20:37;;;;;;;56.40;31.77;;;;;;;5.67;100.00;103489.19;4994445;28;20125;-73
2022/01/24 10:23:05;;;;;;;62.92;31.73;;;;;;;5.87;100.00;103487.34;5012802;28;20046;-71
2022/01/24 10:25:31;;;;;;;62.95;31.83;;;;;;;6.01;100.00;103498.25;5013567;28;20347;-71
2022/01/24 10:28:03;;;;;;;57.58;31.17;;;;;;;5.71;100.00;103492.34;5012793;28;20139;-72
2022/01/24 10:30:29;;;;;;;42.90;24.63;;;;;;;5.53;100.00;103492.94;5011999;28;20049;-70
2022/01/24 10:32:56;;;;;;;46.92;25.58;;;;;;;5.68;100.00;103491.72;5012687;28;20041;-71
2022/01/24 10:35:46;;;;;;;53.03;27.92;;;;;;;5.89;100.00;103493.41;4994092;28;20038;-73
2022/01/24 10:38:40;;;;;;;50.28;28.13;;;;;;;5.73;100.00;103490.25;5012980;28;20057;-70
2022/01/24 10:43:47;;;;;;;54.22;27.80;;;;;;;6.07;100.00;103494.69;4994668;28;20118;-70
2022/01/24 10:46:13;;;;;;;40.88;23.92;;;;;;;5.77;100.00;103489.66;5013304;28;20051;-70
2022/01/24 10:48:44;;;;;;;46.08;25.55;;;;;;;5.66;100.00;103482.97;5013510;28;20045;-71
2022/01/24 10:51:20;;;;;;;36.55;19.50;;;;;;;5.36;100.00;103482.47;5013529;28;20603;-70
2022/01/24 10:53:52;;;;;;;38.00;22.35;;;;;;;5.23;100.00;103474.31;5012963;28;20123;-73
2022/01/24 10:56:38;;;;;;;39.15;21.70;;;;;;;5.63;100.00;103471.72;4994122;28;20517;-72
2022/01/24 10:59:22;;;;;;;36.97;20.45;;;;;;;5.75;100.00;103467.34;5012517;28;20080;-70
2022/01/24 11:01:53;;;;;;;33.97;19.73;;;;;;;5.88;100.00;103459.25;5013259;28;20120;-71
2022/01/24 11:04:20;;;;;;;33.80;20.48;;;;;;;5.51;100.00;103457.13;5012022;28;20163;-70
2022/01/24 11:06:47;;;;;;;34.45;21.08;;;;;;;5.52;100.00;103453.38;5012411;28;20540;-70
2022/01/24 11:09:24;;;;;;;32.75;20.27;;;;;;;5.60;100.00;103450.47;5012997;28;20052;-71
2022/01/24 11:11:55;;;;;;;35.63;20.98;;;;;;;5.92;100.00;103453.41;5013366;28;20069;-70
2022/01/24 11:14:23;;;;;;;36.67;21.00;;;;;;;5.95;100.00;103453.84;4991515;28;20887;-70
2022/01/24 11:16:49;;;;;;;32.78;19.58;;;;;;;5.47;100.00;103461.25;5009135;28;20426;-70
2022/01/24 11:19:22;;;;;;;38.85;22.50;;;;;;;5.82;100.00;103459.25;5011351;28;20104;-73
2022/01/24 11:21:48;;;;;;;43.67;22.55;;;;;;;5.39;100.00;103455.00;5013464;28;20065;-72
2022/01/24 11:24:19;;;;;;;39.47;21.90;;;;;;;5.78;100.00;103453.41;4997269;28;20116;-70
2022/01/24 11:26:46;;;;;;;33.53;21.15;;;;;;;5.90;100.00;103449.06;5016120;28;20064;-70
2022/01/24 11:29:12;;;;;;;29.48;18.05;;;;;;;5.58;100.00;103447.13;4997626;28;20551;-70
2022/01/24 11:31:49;;;;;;;36.13;19.75;;;;;;;5.88;100.00;103442.16;4997669;28;20474;-71
2022/01/24 11:34:35;;;;;;;34.25;20.08;;;;;;;6.07;100.00;103440.53;5015204;28;20049;-70
2022/01/24 11:37:02;;;;;;;31.15;20.20;;;;;;;6.10;100.00;103434.69;4997386;28;20691;-70
2022/01/24 11:39:27;;;;;;;32.53;19.73;;;;;;;5.89;100.00;103439.25;5015476;28;20386;-71
2022/01/24 11:41:53;;;;;;;31.30;18.77;;;;;;;6.03;100.00;103439.28;5015679;28;20030;-71
2022/01/24 11:44:21;;;;;;;29.85;18.77;;;;;;;5.75;100.00;103442.16;5015234;28;20037;-71
2022/01/24 11:46:52;;;;;;;32.33;20.13;;;;;;;5.65;100.00;103448.81;5014657;28;20042;-71
2022/01/24 11:49:25;;;;;;;35.33;20.85;;;;;;;5.50;100.00;103439.19;5014069;28;20033;-71
2022/01/24 11:52:01;;;;;;;34.28;20.35;;;;;;;5.40;100.00;103435.03;4996082;28;20513;-71
2022/01/24 11:54:45;;;;;;;33.90;20.60;;;;;;;5.52;100.00;103445.25;5013930;28;20029;-71
2022/01/24 11:57:17;;;;;;;35.60;22.38;;;;;;;5.66;100.00;103453.19;5014263;28;20786;-71
2022/01/24 11:59:43;;;;;;;32.63;21.48;;;;;;;6.08;100.00;103442.22;5013495;28;20041;-70
2022/01/24 12:02:11;;;;;;;34.67;21.77;;;;;;;6.02;100.00;103448.44;5013927;28;20045;-73
2022/01/24 12:05:00;;;;;;;34.97;22.75;;;;;;;6.06;100.00;103445.09;5013412;28;20124;-71
2022/01/24 12:07:28;;;;;;;41.28;24.52;;;;;;;5.89;100.00;103444.66;5013793;28;20365;-72
2022/01/24 12:10:14;;;;;;;35.55;22.45;;;;;;;5.67;100.00;103440.47;4995192;28;20045;-71
2022/01/24 12:12:50;;;;;;;38.95;23.77;;;;;;;5.91;100.00;103436.34;5013105;28;20867;-70
2022/01/24 12:15:37;;;;;;;40.72;25.25;;;;;;;6.03;100.00;103431.16;5013442;28;20108;-70
2022/01/24 12:18:06;;;;;;;38.17;23.75;;;;;;;6.17;100.00;103434.66;5011256;28;20045;-71
2022/01/24 12:20:31;;;;;;;45.65;26.40;;;;;;;5.77;100.00;103426.53;5013826;28;20045;-72
2022/01/24 12:22:58;;;;;;;41.72;25.67;;;;;;;5.77;100.00;103424.66;5014674;28;20045;-70
2022/01/24 12:25:47;;;;;;;44.17;26.08;;;;;;;5.96;100.00;103427.59;5014723;28;20147;-71
2022/01/24 12:28:19;;;;;;;42.65;26.13;;;;;;;5.75;100.00;103417.78;5001791;28;20049;-71
2022/01/24 12:30:57;;;;;;;;;;;;;;;5.81;100.00;103415.06;4995623;28;20285;-71
2022/01/24 12:33:55;;;;;;;41.28;25.55;;;;;;;6.18;100.00;103415.50;5014139;28;20672;-71
2022/01/24 12:36:47;;;;;;;38.03;23.88;;;;;;;6.31;100.00;103410.06;4979802;28;20927;-71
2022/01/24 12:39:20;;;;;;;40.35;24.98;;;;;;;5.84;100.00;103419.25;5015181;28;20294;-71
2022/01/24 12:41:51;;;;;;;36.75;24.45;;;;;;;6.02;100.00;103418.63;5014305;28;20418;-71
2022/01/24 12:47:03;;;;;;;43.83;27.08;;;;;;;5.88;100.00;103421.34;5013661;28;20053;-73
2022/01/24 12:49:30;;;;;;;43.30;27.00;;;;;;;5.78;100.00;103420.91;4995602;28;20060;-70
2022/01/24 12:51:59;;;;;;;42.58;26.15;;;;;;;6.01;100.00;103425.09;5014037;28;20052;-71
2022/01/24 12:54:39;;;;;;;38.22;25.23;;;;;;;5.99;100.00;103427.19;5013714;28;20045;-72